createdAt,value
2023-04-03T00:00:01.472Z,1.73
2023-04-03T00:01:01.455Z,1.73
2023-04-03T00:02:01.529Z,1.67
2023-04-03T00:03:01.470Z,1.63
2023-04-03T00:04:01.436Z,1.63
2023-04-03T00:05:01.375Z,1.60
2023-04-03T00:06:01.352Z,1.59
2023-04-03T00:07:01.366Z,1.45
2023-04-03T00:08:01.324Z,1.40
2023-04-03T00:09:01.298Z,1.37
2023-04-03T00:10:01.276Z,1.37
2023-04-03T00:11:01.255Z,1.26
2023-04-03T00:12:01.276Z,1.41
2023-04-03T00:13:01.228Z,1.38
2023-04-03T00:14:01.249Z,1.32
2023-04-03T00:15:01.186Z,1.24
2023-04-03T00:16:01.163Z,1.17
2023-04-03T00:17:01.224Z,1.17
2023-04-03T00:18:01.150Z,1.01
2023-04-03T00:19:01.107Z,1.01
2023-04-03T00:20:01.118Z,1.02
2023-04-03T00:21:01.067Z,1.01
2023-04-03T00:22:01.076Z,0.92
2023-04-03T00:23:01.042Z,0.80
2023-04-03T00:24:01.015Z,0.87
2023-04-03T00:25:01.028Z,0.81
2023-04-03T00:26:01.982Z,0.78
2023-04-03T00:27:00.983Z,0.74
2023-04-03T00:28:00.940Z,0.78
2023-04-03T00:29:00.920Z,0.77
2023-04-03T00:30:01.909Z,0.69
2023-04-03T00:31:00.924Z,0.68
2023-04-03T00:32:00.888Z,0.73
2023-04-03T00:33:00.864Z,0.63
2023-04-03T00:34:00.821Z,0.60
2023-04-03T00:35:00.805Z,0.50
2023-04-03T00:36:00.822Z,0.62
2023-04-03T00:37:00.923Z,0.56
2023-04-03T00:38:00.772Z,0.58
2023-04-03T00:39:00.730Z,0.60
2023-04-03T00:40:00.755Z,0.46
2023-04-03T00:41:01.383Z,0.46
2023-04-03T00:42:00.701Z,0.46
2023-04-03T00:43:01.662Z,0.43
2023-04-03T00:44:00.650Z,0.44
2023-04-03T00:45:00.626Z,0.43
2023-04-03T00:46:00.618Z,0.31
2023-04-03T00:47:01.552Z,0.31
2023-04-03T00:48:00.655Z,0.29
2023-04-03T00:49:00.555Z,0.23
2023-04-03T00:50:00.520Z,0.39
2023-04-03T00:51:00.521Z,0.21
2023-04-03T00:52:00.521Z,0.31
2023-04-03T00:53:00.473Z,0.26
2023-04-03T00:54:00.457Z,0.12
2023-04-03T00:55:00.421Z,0.23
2023-04-03T00:56:00.414Z,0.22
2023-04-03T00:57:00.449Z,0.12
2023-04-03T00:58:00.368Z,0.11
2023-04-03T00:59:00.352Z,0.10
2023-04-03T01:00:00.365Z,0.12
2023-04-03T01:01:00.305Z,0.15
2023-04-03T01:02:00.644Z,0.08
2023-04-03T01:03:00.308Z,0.11
2023-04-03T01:04:00.278Z,0.15
2023-04-03T01:05:00.229Z,0.08
2023-04-03T01:06:00.208Z,0.01
2023-04-03T01:07:00.221Z,0.11
2023-04-03T01:08:00.160Z,0.10
2023-04-03T01:09:01.159Z,0.16
2023-04-03T01:10:00.157Z,0.11
2023-04-03T01:11:00.110Z,0.05
2023-04-03T01:12:00.152Z,0.00
2023-04-03T01:13:00.111Z,0.05
2023-04-03T01:14:00.065Z,0.10
2023-04-03T01:15:00.063Z,-0.08
2023-04-03T01:16:00.046Z,-0.07
2023-04-03T01:16:59.993Z,-0.13
2023-04-03T01:17:59.995Z,-0.11
2023-04-03T01:18:59.954Z,-0.10
2023-04-03T01:19:59.962Z,-0.25
2023-04-03T01:20:59.915Z,-0.17
2023-04-03T01:21:59.893Z,-0.23
2023-04-03T01:22:59.912Z,-0.28
2023-04-03T01:23:59.854Z,-0.11
2023-04-03T01:24:59.837Z,-0.28
2023-04-03T01:25:59.822Z,-0.26
2023-04-03T01:26:59.794Z,-0.28
2023-04-03T01:27:59.798Z,-0.32
2023-04-03T01:28:59.774Z,-0.35
2023-04-03T01:29:59.736Z,-0.28
2023-04-03T01:30:59.709Z,-0.36
2023-04-03T01:32:00.692Z,-0.29
2023-04-03T01:32:59.730Z,-0.29
2023-04-03T01:33:59.658Z,-0.34
2023-04-03T01:34:59.632Z,-0.38
2023-04-03T01:35:59.648Z,-0.34
2023-04-03T01:36:59.593Z,-0.29
2023-04-03T01:37:59.607Z,-0.35
2023-04-03T01:38:59.554Z,-0.28
2023-04-03T01:39:59.564Z,-0.31
2023-04-03T01:40:59.515Z,-0.29
2023-04-03T01:41:59.493Z,-0.34
2023-04-03T01:42:59.498Z,-0.28
2023-04-03T01:43:59.452Z,-0.39
2023-04-03T01:44:59.435Z,-0.35
2023-04-03T01:45:59.452Z,-0.32
2023-04-03T01:46:59.397Z,-0.32
2023-04-03T01:47:59.442Z,-0.32
2023-04-03T01:48:59.351Z,-0.31
2023-04-03T01:49:59.333Z,-0.26
2023-04-03T01:50:59.314Z,-0.35
2023-04-03T01:51:59.293Z,-0.29
2023-04-03T01:52:59.309Z,-0.35
2023-04-03T01:53:59.258Z,-0.39
2023-04-03T01:54:59.240Z,-0.50
2023-04-03T01:55:59.213Z,-0.49
2023-04-03T01:56:59.212Z,-0.46
2023-04-03T01:57:59.198Z,-0.53
2023-04-03T01:58:59.151Z,-0.52
2023-04-03T01:59:59.138Z,-0.52
2023-04-03T02:00:59.134Z,-0.54
2023-04-03T02:01:59.090Z,-0.50
2023-04-03T02:02:59.118Z,-0.50
2023-04-03T02:03:59.077Z,-0.61
2023-04-03T02:04:59.029Z,-0.59
2023-04-03T02:05:59.012Z,-0.64
2023-04-03T02:06:59.017Z,-0.62
2023-04-03T02:07:58.996Z,-0.64
2023-04-03T02:08:58.946Z,-0.64
2023-04-03T02:09:58.923Z,-0.65
2023-04-03T02:10:58.904Z,-0.62
2023-04-03T02:11:58.880Z,-0.71
2023-04-03T02:12:58.909Z,-0.68
2023-04-03T02:13:58.837Z,-0.80
2023-04-03T02:14:58.825Z,-0.71
2023-04-03T02:15:58.840Z,-0.78
2023-04-03T02:16:58.833Z,-0.78
2023-04-03T02:17:58.820Z,-0.72
2023-04-03T02:18:58.770Z,-0.75
2023-04-03T02:19:58.723Z,-0.83
2023-04-03T02:20:58.704Z,-0.89
2023-04-03T02:21:58.680Z,-0.83
2023-04-03T02:22:58.686Z,-0.80
2023-04-03T02:23:58.637Z,-0.86
2023-04-03T02:24:58.628Z,-0.82
2023-04-03T02:25:58.598Z,-0.78
2023-04-03T02:26:58.587Z,-0.94
2023-04-03T02:27:58.581Z,-0.93
2023-04-03T02:28:58.534Z,-0.90
2023-04-03T02:29:58.516Z,-0.86
2023-04-03T02:30:58.513Z,-0.93
2023-04-03T02:31:58.469Z,-0.93
2023-04-03T02:32:58.501Z,-0.80
2023-04-03T02:33:58.430Z,-0.97
2023-04-03T02:34:58.404Z,-0.97
2023-04-03T02:35:58.401Z,-0.91
2023-04-03T02:36:58.369Z,-0.91
2023-04-03T02:37:58.377Z,-0.83
2023-04-03T02:38:58.335Z,-0.90
2023-04-03T02:39:58.335Z,-1.01
2023-04-03T02:40:58.287Z,-1.04
2023-04-03T02:41:58.269Z,-1.04
2023-04-03T02:42:58.284Z,-1.05
2023-04-03T02:43:58.226Z,-1.04
2023-04-03T02:44:59.464Z,-1.04
2023-04-03T02:45:58.462Z,-1.07
2023-04-03T02:46:58.190Z,-1.07
2023-04-03T02:47:58.243Z,-1.08
2023-04-03T02:48:58.130Z,-1.09
2023-04-03T02:49:58.097Z,-1.17
2023-04-03T02:50:59.108Z,-1.11
2023-04-03T02:51:58.087Z,-1.09
2023-04-03T02:52:58.074Z,-1.15
2023-04-03T02:53:58.025Z,-1.20
2023-04-03T02:54:58.006Z,-1.25
2023-04-03T02:55:57.991Z,-1.14
2023-04-03T02:56:57.986Z,-1.22
2023-04-03T02:57:57.970Z,-1.11
2023-04-03T02:58:57.940Z,-1.20
2023-04-03T02:59:57.918Z,-1.14
2023-04-03T03:00:57.897Z,-1.19
2023-04-03T03:01:57.916Z,-1.17
2023-04-03T03:02:57.917Z,-1.15
2023-04-03T03:03:57.825Z,-1.35
2023-04-03T03:04:57.821Z,-1.27
2023-04-03T03:05:57.779Z,-1.23
2023-04-03T03:06:57.760Z,-1.26
2023-04-03T03:07:57.769Z,-1.25
2023-04-03T03:08:57.716Z,-1.37
2023-04-03T03:09:57.696Z,-1.29
2023-04-03T03:10:57.680Z,-1.33
2023-04-03T03:11:57.653Z,-1.23
2023-04-03T03:12:57.670Z,-1.30
2023-04-03T03:13:57.625Z,-1.29
2023-04-03T03:14:57.601Z,-1.32
2023-04-03T03:15:57.648Z,-1.19
2023-04-03T03:16:57.582Z,-1.23
2023-04-03T03:17:57.628Z,-1.22
2023-04-03T03:18:57.968Z,-1.30
2023-04-03T03:19:58.491Z,-1.23
2023-04-03T03:20:57.474Z,-1.27
2023-04-03T03:21:57.449Z,-1.17
2023-04-03T03:22:57.457Z,-1.25
2023-04-03T03:23:57.410Z,-1.26
2023-04-03T03:24:57.385Z,-1.25
2023-04-03T03:25:57.370Z,-1.22
2023-04-03T03:26:57.341Z,-1.26
2023-04-03T03:27:57.343Z,-1.41
2023-04-03T03:28:58.305Z,-1.30
2023-04-03T03:29:57.277Z,-1.32
2023-04-03T03:30:57.255Z,-1.43
2023-04-03T03:31:57.235Z,-1.44
2023-04-03T03:32:57.278Z,-1.30
2023-04-03T03:33:57.201Z,-1.30
2023-04-03T03:34:57.178Z,-1.30
2023-04-03T03:35:57.167Z,-1.25
2023-04-03T03:36:57.136Z,-1.40
2023-04-03T03:37:57.145Z,-1.40
2023-04-03T03:38:57.083Z,-1.41
2023-04-03T03:39:57.067Z,-1.25
2023-04-03T03:40:57.041Z,-1.30
2023-04-03T03:41:57.029Z,-1.32
2023-04-03T03:42:57.034Z,-1.33
2023-04-03T03:43:56.983Z,-1.37
2023-04-03T03:44:56.982Z,-1.20
2023-04-03T03:45:56.986Z,-1.22
2023-04-03T03:46:56.953Z,-1.22
2023-04-03T03:47:56.982Z,-1.29
2023-04-03T03:48:56.873Z,-1.32
2023-04-03T03:49:56.854Z,-1.27
2023-04-03T03:50:56.835Z,-1.30
2023-04-03T03:51:56.816Z,-1.40
2023-04-03T03:52:56.820Z,-1.30
2023-04-03T03:53:56.773Z,-1.37
2023-04-03T03:54:56.751Z,-1.40
2023-04-03T03:55:56.729Z,-1.35
2023-04-03T03:56:56.752Z,-1.41
2023-04-03T03:57:56.725Z,-1.44
2023-04-03T03:58:56.666Z,-1.46
2023-04-03T03:59:56.648Z,-1.46
2023-04-03T04:00:56.632Z,-1.48
2023-04-03T04:01:56.634Z,-1.51
2023-04-03T04:02:58.761Z,-1.41
2023-04-03T04:03:56.707Z,-1.41
2023-04-03T04:04:56.541Z,-1.47
2023-04-03T04:05:56.521Z,-1.48
2023-04-03T04:06:56.493Z,-1.61
2023-04-03T04:07:57.506Z,-1.48
2023-04-03T04:08:56.460Z,-1.50
2023-04-03T04:09:56.446Z,-1.50
2023-04-03T04:10:56.416Z,-1.51
2023-04-03T04:11:56.409Z,-1.59
2023-04-03T04:12:58.451Z,-1.59
2023-04-03T04:13:57.362Z,-1.48
2023-04-03T04:14:56.338Z,-1.65
2023-04-03T04:15:56.319Z,-1.54
2023-04-03T04:16:56.359Z,-1.54
2023-04-03T04:17:56.346Z,-1.48
2023-04-03T04:18:56.265Z,-1.65
2023-04-03T04:19:56.236Z,-1.54
2023-04-03T04:20:56.213Z,-1.68
2023-04-03T04:21:56.194Z,-1.62
2023-04-03T04:22:56.208Z,-1.59
2023-04-03T04:23:56.154Z,-1.72
2023-04-03T04:24:56.130Z,-1.66
2023-04-03T04:25:56.112Z,-1.68
2023-04-03T04:26:56.090Z,-1.69
2023-04-03T04:27:56.100Z,-1.74
2023-04-03T04:28:56.049Z,-1.82
2023-04-03T04:29:56.663Z,-1.80
2023-04-03T04:30:56.057Z,-1.80
2023-04-03T04:31:56.011Z,-1.68
2023-04-03T04:32:56.006Z,-1.82
2023-04-03T04:33:55.971Z,-1.89
2023-04-03T04:34:55.986Z,-1.74
2023-04-03T04:35:55.948Z,-1.76
2023-04-03T04:36:55.973Z,-1.84
2023-04-03T04:37:55.861Z,-1.86
2023-04-03T04:38:55.886Z,-1.87
2023-04-03T04:39:55.820Z,-1.90
2023-04-03T04:40:55.796Z,-1.95
2023-04-03T04:41:55.779Z,-1.98
2023-04-03T04:42:55.751Z,-2.02
2023-04-03T04:43:55.765Z,-2.02
2023-04-03T04:44:55.717Z,-2.07
2023-04-03T04:45:55.703Z,-1.97
2023-04-03T04:46:55.676Z,-2.04
2023-04-03T04:47:55.680Z,-2.19
2023-04-03T04:48:55.657Z,-2.02
2023-04-03T04:49:55.609Z,-2.10
2023-04-03T04:50:55.588Z,-2.08
2023-04-03T04:51:55.571Z,-2.05
2023-04-03T04:52:55.564Z,-2.13
2023-04-03T04:53:56.185Z,-2.02
2023-04-03T04:54:56.507Z,-2.05
2023-04-03T04:55:55.487Z,-1.98
2023-04-03T04:56:55.538Z,-2.08
2023-04-03T04:57:55.448Z,-2.02
2023-04-03T04:58:55.458Z,-2.07
2023-04-03T04:59:55.407Z,-2.15
2023-04-03T05:00:55.386Z,-2.07
2023-04-03T05:01:55.434Z,-2.07
2023-04-03T05:02:55.388Z,-2.08
2023-04-03T05:03:55.352Z,-2.00
2023-04-03T05:04:55.336Z,-2.10
2023-04-03T05:05:55.282Z,-2.10
2023-04-03T05:06:55.268Z,-1.97
2023-04-03T05:07:55.243Z,-2.04
2023-04-03T05:08:55.256Z,-1.86
2023-04-03T05:09:55.190Z,-1.48
2023-04-03T05:10:56.565Z,-1.14
2023-04-03T05:11:56.156Z,-0.89
2023-04-03T05:12:55.136Z,-0.61
2023-04-03T05:13:55.140Z,-0.28
2023-04-03T05:14:55.093Z,-0.07
2023-04-03T05:15:55.075Z,0.28
2023-04-03T05:16:55.053Z,0.44
2023-04-03T05:17:55.070Z,0.60
2023-04-03T05:18:55.051Z,0.80
2023-04-03T05:19:55.008Z,0.68
2023-04-03T05:20:54.972Z,0.84
2023-04-03T05:21:54.954Z,1.20
2023-04-03T05:22:54.940Z,1.19
2023-04-03T05:23:54.953Z,1.32
2023-04-03T05:24:54.899Z,1.40
2023-04-03T05:25:54.882Z,1.35
2023-04-03T05:26:54.870Z,1.41
2023-04-03T05:27:54.850Z,1.52
2023-04-03T05:28:54.865Z,2.06
2023-04-03T05:29:54.812Z,2.00
2023-04-03T05:30:54.791Z,1.99
2023-04-03T05:31:54.884Z,1.87
2023-04-03T05:32:54.769Z,1.73
2023-04-03T05:33:54.763Z,1.32
2023-04-03T05:34:54.714Z,0.98
2023-04-03T05:35:54.787Z,0.49
2023-04-03T05:36:54.677Z,0.34
2023-04-03T05:37:54.672Z,0.41
2023-04-03T05:38:54.664Z,0.69
2023-04-03T05:39:54.620Z,0.34
2023-04-03T05:40:54.639Z,0.59
2023-04-03T05:41:54.593Z,0.39
2023-04-03T05:42:54.596Z,-0.03
2023-04-03T05:43:54.566Z,-0.23
2023-04-03T05:44:54.522Z,-0.32
2023-04-03T05:45:54.596Z,-0.32
2023-04-03T05:46:54.488Z,-0.02
2023-04-03T05:47:54.597Z,-0.06
2023-04-03T05:48:54.478Z,-0.14
2023-04-03T05:49:54.435Z,0.56
2023-04-03T05:50:55.817Z,1.45
2023-04-03T05:51:54.391Z,2.14
2023-04-03T05:52:54.373Z,2.74
2023-04-03T05:53:54.387Z,2.61
2023-04-03T05:54:54.336Z,3.55
2023-04-03T05:55:54.325Z,3.66
2023-04-03T05:56:54.320Z,3.18
2023-04-03T05:57:54.322Z,3.58
2023-04-03T05:58:54.267Z,4.06
2023-04-03T05:59:54.249Z,4.23
2023-04-03T06:00:54.235Z,4.53
2023-04-03T06:01:54.225Z,4.87
2023-04-03T06:02:54.326Z,5.66
2023-04-03T06:03:54.340Z,5.53
2023-04-03T06:04:54.325Z,4.71
2023-04-03T06:05:54.132Z,4.70
2023-04-03T06:06:54.132Z,4.44
2023-04-03T06:07:54.102Z,4.73
2023-04-03T06:08:54.103Z,4.28
2023-04-03T06:09:54.039Z,4.04
2023-04-03T06:10:55.029Z,4.56
2023-04-03T06:11:54.004Z,4.13
2023-04-03T06:12:53.987Z,4.38
2023-04-03T06:13:53.996Z,5.36
2023-04-03T06:14:53.952Z,5.71
2023-04-03T06:15:53.920Z,6.07
2023-04-03T06:16:53.995Z,5.86
2023-04-03T06:17:53.903Z,5.93
2023-04-03T06:18:53.889Z,6.48
2023-04-03T06:19:53.842Z,5.83
2023-04-03T06:20:53.821Z,5.99
2023-04-03T06:21:53.812Z,5.53
2023-04-03T06:22:53.789Z,5.35
2023-04-03T06:23:53.796Z,6.12
2023-04-03T06:24:53.750Z,6.81
2023-04-03T06:25:53.730Z,6.01
2023-04-03T06:26:53.718Z,6.33
2023-04-03T06:27:53.694Z,5.48
2023-04-03T06:28:53.710Z,5.07
2023-04-03T06:29:53.878Z,5.48
2023-04-03T06:30:53.658Z,4.60
2023-04-03T06:31:53.623Z,4.80
2023-04-03T06:32:53.647Z,4.84
2023-04-03T06:33:53.627Z,5.89
2023-04-03T06:34:53.571Z,6.85
2023-04-03T06:35:53.567Z,7.48
2023-04-03T06:36:53.549Z,7.87
2023-04-03T06:37:53.511Z,8.45
2023-04-03T06:38:53.528Z,6.97
2023-04-03T06:39:53.484Z,5.94
2023-04-03T06:40:53.462Z,4.74
2023-04-03T06:41:53.439Z,4.82
2023-04-03T06:42:53.623Z,5.20
2023-04-03T06:43:53.425Z,4.60
2023-04-03T06:44:53.384Z,4.99
2023-04-03T06:45:53.385Z,5.90
2023-04-03T06:46:53.350Z,6.01
2023-04-03T06:47:53.374Z,5.08
2023-04-03T06:48:53.332Z,5.20
2023-04-03T06:49:53.294Z,5.17
2023-04-03T06:50:53.273Z,4.89
2023-04-03T06:51:53.251Z,4.14
2023-04-03T06:52:53.230Z,4.74
2023-04-03T06:53:53.245Z,4.14
2023-04-03T06:54:53.192Z,5.04
2023-04-03T06:55:53.358Z,5.59
2023-04-03T06:56:53.193Z,5.61
2023-04-03T06:57:53.136Z,5.83
2023-04-03T06:58:53.154Z,4.94
2023-04-03T06:59:53.115Z,5.83
2023-04-03T07:00:53.091Z,6.09
2023-04-03T07:01:53.120Z,6.11
2023-04-03T07:02:53.079Z,6.51
2023-04-03T07:03:53.058Z,5.73
2023-04-03T07:04:53.112Z,5.99
2023-04-03T07:05:52.995Z,5.29
2023-04-03T07:06:52.978Z,4.48
2023-04-03T07:07:52.951Z,4.48
2023-04-03T07:08:52.975Z,3.58
2023-04-03T07:09:52.921Z,4.12
2023-04-03T07:10:52.908Z,4.82
2023-04-03T07:11:52.886Z,4.58
2023-04-03T07:12:52.865Z,5.84
2023-04-03T07:13:52.877Z,6.36
2023-04-03T07:14:52.824Z,5.86
2023-04-03T07:15:52.861Z,7.25
2023-04-03T07:16:52.795Z,5.97
2023-04-03T07:17:52.854Z,6.08
2023-04-03T07:18:52.784Z,5.89
2023-04-03T07:19:52.739Z,6.41
2023-04-03T07:20:52.715Z,6.38
2023-04-03T07:21:52.696Z,5.87
2023-04-03T07:22:52.689Z,5.47
2023-04-03T07:23:52.708Z,5.79
2023-04-03T07:24:52.642Z,6.62
2023-04-03T07:25:52.625Z,5.76
2023-04-03T07:26:52.608Z,5.29
2023-04-03T07:27:52.586Z,5.99
2023-04-03T07:28:52.596Z,5.05
2023-04-03T07:29:53.853Z,5.08
2023-04-03T07:30:52.525Z,4.67
2023-04-03T07:31:52.571Z,5.15
2023-04-03T07:32:52.574Z,6.02
2023-04-03T07:33:52.480Z,6.62
2023-04-03T07:34:52.484Z,7.54
2023-04-03T07:35:52.460Z,8.30
2023-04-03T07:36:52.420Z,8.66
2023-04-03T07:37:52.404Z,8.00
2023-04-03T07:38:52.382Z,7.50
2023-04-03T07:39:52.401Z,6.11
2023-04-03T07:40:52.343Z,5.98
2023-04-03T07:41:52.325Z,6.82
2023-04-03T07:42:52.316Z,6.30
2023-04-03T07:43:52.326Z,6.51
2023-04-03T07:44:52.286Z,7.35
2023-04-03T07:45:52.276Z,6.01
2023-04-03T07:46:52.235Z,5.50
2023-04-03T07:47:52.214Z,6.12
2023-04-03T07:48:52.224Z,6.59
2023-04-03T07:49:52.201Z,7.45
2023-04-03T07:50:52.158Z,7.61
2023-04-03T07:51:52.132Z,7.54
2023-04-03T07:52:52.118Z,7.85
2023-04-03T07:53:52.105Z,7.93
2023-04-03T07:54:52.112Z,7.35
2023-04-03T07:55:52.057Z,7.35
2023-04-03T07:56:52.095Z,7.29
2023-04-03T07:57:52.026Z,7.06
2023-04-03T07:58:51.999Z,7.02
2023-04-03T07:59:52.013Z,7.51
2023-04-03T08:00:51.961Z,8.28
2023-04-03T08:01:51.947Z,8.63
2023-04-03T08:02:52.033Z,7.21
2023-04-03T08:03:52.065Z,7.66
2023-04-03T08:04:52.065Z,7.53
2023-04-03T08:05:51.907Z,8.05
2023-04-03T08:06:51.855Z,8.18
2023-04-03T08:07:51.836Z,7.50
2023-04-03T08:08:52.544Z,7.40
2023-04-03T08:09:51.947Z,7.14
2023-04-03T08:10:51.800Z,7.53
2023-04-03T08:11:51.762Z,6.45
2023-04-03T08:12:52.614Z,6.14
2023-04-03T08:13:53.630Z,6.17
2023-04-03T08:14:51.861Z,6.56
2023-04-03T08:15:51.684Z,6.97
2023-04-03T08:16:51.685Z,6.28
2023-04-03T08:17:51.686Z,5.51
2023-04-03T08:18:51.626Z,5.66
2023-04-03T08:19:51.648Z,6.44
2023-04-03T08:20:51.585Z,6.31
2023-04-03T08:21:51.565Z,6.52
2023-04-03T08:22:51.576Z,7.28
2023-04-03T08:23:51.565Z,5.99
2023-04-03T08:24:58.426Z,5.10
2023-04-03T08:25:53.494Z,5.48
2023-04-03T08:26:51.481Z,6.05
2023-04-03T08:27:51.461Z,6.88
2023-04-03T08:28:51.452Z,6.51
2023-04-03T08:29:51.454Z,5.73
2023-04-03T08:30:51.455Z,6.38
2023-04-03T08:31:51.413Z,5.65
2023-04-03T08:32:51.404Z,6.35
2023-04-03T08:33:51.376Z,7.03
2023-04-03T08:34:51.357Z,6.57
2023-04-03T08:35:51.334Z,6.24
2023-04-03T08:36:51.287Z,7.03
2023-04-03T08:37:51.265Z,7.40
2023-04-03T08:38:51.248Z,6.81
2023-04-03T08:39:51.267Z,6.48
2023-04-03T08:40:51.207Z,6.69
2023-04-03T08:41:51.192Z,6.42
2023-04-03T08:42:51.179Z,6.49
2023-04-03T08:43:51.156Z,6.45
2023-04-03T08:44:51.170Z,6.87
2023-04-03T08:45:51.159Z,6.93
2023-04-03T08:46:51.105Z,6.57
2023-04-03T08:47:51.706Z,6.93
2023-04-03T08:48:52.069Z,6.04
2023-04-03T08:49:51.084Z,6.33
2023-04-03T08:50:53.047Z,6.95
2023-04-03T08:51:51.015Z,7.54
2023-04-03T08:52:50.988Z,7.36
2023-04-03T08:53:51.097Z,7.57
2023-04-03T08:54:50.957Z,7.88
2023-04-03T08:55:50.938Z,8.01
2023-04-03T08:56:50.951Z,8.16
2023-04-03T08:57:50.896Z,7.77
2023-04-03T08:58:50.917Z,7.51
2023-04-03T08:59:50.884Z,7.50
2023-04-03T09:00:50.839Z,6.93
2023-04-03T09:01:50.858Z,7.56
2023-04-03T09:02:50.823Z,7.48
2023-04-03T09:03:50.848Z,6.93
2023-04-03T09:04:50.784Z,6.60
2023-04-03T09:05:50.742Z,7.03
2023-04-03T09:06:50.730Z,7.02
2023-04-03T09:07:50.711Z,7.28
2023-04-03T09:08:50.678Z,6.67
2023-04-03T09:09:50.764Z,6.89
2023-04-03T09:10:50.648Z,7.11
2023-04-03T09:11:50.619Z,6.57
2023-04-03T09:12:50.596Z,7.06
2023-04-03T09:13:50.576Z,7.45
2023-04-03T09:14:50.586Z,6.49
2023-04-03T09:15:50.556Z,5.35
2023-04-03T09:16:50.524Z,5.10
2023-04-03T09:17:50.548Z,5.59
2023-04-03T09:18:50.478Z,5.87
2023-04-03T09:19:50.522Z,6.22
2023-04-03T09:20:50.438Z,5.87
2023-04-03T09:21:50.417Z,6.04
2023-04-03T09:22:52.770Z,6.05
2023-04-03T09:23:51.382Z,5.64
2023-04-03T09:24:50.378Z,4.58
2023-04-03T09:25:50.393Z,4.80
2023-04-03T09:26:51.312Z,4.52
2023-04-03T09:27:50.288Z,4.58
2023-04-03T09:28:51.107Z,4.75
2023-04-03T09:29:51.270Z,4.86
2023-04-03T09:30:50.214Z,5.17
2023-04-03T09:31:50.209Z,4.90
2023-04-03T09:32:50.235Z,4.26
2023-04-03T09:33:50.155Z,3.32
2023-04-03T09:34:50.168Z,3.19
2023-04-03T09:35:50.173Z,2.80
2023-04-03T09:36:50.092Z,3.07
2023-04-03T09:37:51.075Z,3.55
2023-04-03T09:38:50.055Z,3.86
2023-04-03T09:39:50.099Z,3.50
2023-04-03T09:40:50.021Z,3.58
2023-04-03T09:41:50.076Z,4.34
2023-04-03T09:42:59.038Z,4.55
2023-04-03T09:43:50.966Z,4.74
2023-04-03T09:44:49.975Z,5.64
2023-04-03T09:45:49.927Z,5.66
2023-04-03T09:46:49.930Z,5.43
2023-04-03T09:47:49.913Z,5.18
2023-04-03T09:48:52.277Z,5.71
2023-04-03T09:49:51.896Z,5.30
2023-04-03T09:50:49.842Z,5.69
2023-04-03T09:51:49.825Z,6.02
2023-04-03T09:52:49.808Z,6.12
2023-04-03T09:53:49.788Z,5.99
2023-04-03T09:54:49.804Z,5.83
2023-04-03T09:55:49.753Z,5.72
2023-04-03T09:56:49.771Z,5.80
2023-04-03T09:57:51.041Z,5.75
2023-04-03T09:58:51.092Z,5.83
2023-04-03T09:59:50.710Z,6.02
2023-04-03T10:00:49.670Z,5.98
2023-04-03T10:01:49.654Z,6.01
2023-04-03T10:02:49.650Z,5.91
2023-04-03T10:03:49.613Z,6.33
2023-04-03T10:04:58.727Z,6.44
2023-04-03T10:05:50.571Z,5.89
2023-04-03T10:06:49.573Z,6.12
2023-04-03T10:08:01.634Z,5.84
2023-04-03T10:08:51.528Z,5.84
2023-04-03T10:09:49.535Z,6.27
2023-04-03T10:10:49.496Z,6.20
2023-04-03T10:11:49.470Z,5.91
2023-04-03T10:12:49.462Z,5.89
2023-04-03T10:13:51.212Z,4.90
2023-04-03T10:14:50.449Z,5.05
2023-04-03T10:15:49.402Z,5.23
2023-04-03T10:16:49.419Z,5.23
2023-04-03T10:17:49.393Z,5.07
2023-04-03T10:18:49.345Z,5.50
2023-04-03T10:19:49.371Z,5.50
2023-04-03T10:20:49.312Z,5.68
2023-04-03T10:21:49.298Z,5.23
2023-04-03T10:22:49.282Z,5.18
2023-04-03T10:23:49.257Z,5.48
2023-04-03T10:24:49.247Z,5.90
2023-04-03T10:25:49.252Z,5.73
2023-04-03T10:26:49.207Z,5.73
2023-04-03T10:27:49.188Z,5.46
2023-04-03T10:28:49.191Z,5.64
2023-04-03T10:29:49.231Z,5.90
2023-04-03T10:30:49.202Z,5.90
2023-04-03T10:31:49.125Z,5.86
2023-04-03T10:32:49.165Z,5.97
2023-04-03T10:33:49.089Z,6.17
2023-04-03T10:35:02.294Z,5.64
2023-04-03T10:35:51.110Z,5.86
2023-04-03T10:36:49.046Z,5.69
2023-04-03T10:37:49.027Z,5.56
2023-04-03T10:38:49.005Z,5.86
2023-04-03T10:39:48.986Z,5.87
2023-04-03T10:40:49.001Z,5.82
2023-04-03T10:42:48.933Z,5.89
2023-04-03T10:43:48.924Z,6.02
2023-04-03T10:44:48.913Z,5.79
2023-04-03T10:45:49.004Z,5.69
2023-04-03T10:46:48.865Z,5.97
2023-04-03T10:47:48.891Z,6.12
2023-04-03T10:48:48.834Z,6.07
2023-04-03T10:49:57.079Z,6.26
2023-04-03T10:50:50.829Z,6.16
2023-04-03T10:51:48.782Z,6.08
2023-04-03T10:52:48.767Z,6.04
2023-04-03T10:53:48.751Z,5.80
2023-04-03T10:54:48.735Z,5.84
2023-04-03T10:55:48.746Z,5.47
2023-04-03T10:56:55.341Z,5.53
2023-04-03T10:57:49.729Z,5.56
2023-04-03T10:58:48.677Z,5.86
2023-04-03T10:59:48.652Z,5.91
2023-04-03T11:00:48.665Z,5.90
2023-04-03T11:01:48.785Z,6.12
2023-04-03T11:02:48.681Z,6.39
2023-04-03T11:03:48.701Z,6.49
2023-04-03T11:04:48.933Z,6.42
2023-04-03T11:05:48.596Z,6.07
2023-04-03T11:06:48.562Z,5.90
2023-04-03T11:07:48.518Z,5.53
2023-04-03T11:08:48.498Z,5.99
2023-04-03T11:09:48.480Z,5.83
2023-04-03T11:10:48.491Z,5.84
2023-04-03T11:11:49.475Z,5.61
2023-04-03T11:12:48.430Z,5.97
2023-04-03T11:13:48.417Z,6.17
2023-04-03T11:14:48.391Z,6.38
2023-04-03T11:15:48.385Z,6.48
2023-04-03T11:16:53.981Z,6.42
2023-04-03T11:17:50.456Z,6.26
2023-04-03T11:18:48.326Z,5.94
2023-04-03T11:19:48.311Z,6.08
2023-04-03T11:20:48.290Z,6.12
2023-04-03T11:21:48.305Z,6.48
2023-04-03T11:22:48.253Z,6.84
2023-04-03T11:23:49.893Z,7.14
2023-04-03T11:24:49.227Z,7.31
2023-04-03T11:25:48.235Z,7.48
2023-04-03T11:26:48.192Z,6.77
2023-04-03T11:27:48.203Z,6.38
2023-04-03T11:28:48.149Z,6.35
2023-04-03T11:29:48.145Z,6.51
2023-04-03T11:30:48.144Z,6.33
2023-04-03T11:31:48.151Z,6.51
2023-04-03T11:32:48.083Z,6.59
2023-04-03T11:33:48.134Z,6.63
2023-04-03T11:34:48.047Z,6.52
2023-04-03T11:35:48.077Z,6.60
2023-04-03T11:36:48.012Z,6.78
2023-04-03T11:37:48.025Z,6.67
2023-04-03T11:38:47.981Z,6.26
2023-04-03T11:39:47.969Z,6.38
2023-04-03T11:40:47.973Z,6.56
2023-04-03T11:41:47.965Z,6.22
2023-04-03T11:42:47.950Z,5.91
2023-04-03T11:43:47.884Z,5.68
2023-04-03T11:44:47.870Z,5.84
2023-04-03T11:45:47.888Z,5.82
2023-04-03T11:46:47.867Z,5.99
2023-04-03T11:47:48.780Z,5.94
2023-04-03T11:48:47.802Z,5.79
2023-04-03T11:49:47.857Z,5.94
2023-04-03T11:50:47.796Z,5.97
2023-04-03T11:51:47.751Z,6.12
2023-04-03T11:52:48.489Z,5.76
2023-04-03T11:53:47.711Z,5.83
2023-04-03T11:54:47.718Z,5.54
2023-04-03T11:55:47.722Z,5.54
2023-04-03T11:56:47.653Z,5.28
2023-04-03T11:57:47.652Z,5.39
2023-04-03T11:58:47.622Z,5.66
2023-04-03T11:59:47.596Z,5.69
2023-04-03T12:00:48.620Z,5.38
2023-04-03T12:01:47.614Z,5.61
2023-04-03T12:02:54.372Z,5.61
2023-04-03T12:03:49.588Z,5.17
2023-04-03T12:04:47.519Z,5.14
2023-04-03T12:05:47.608Z,5.10
2023-04-03T12:06:47.483Z,5.08
2023-04-03T12:07:47.473Z,5.15
2023-04-03T12:08:47.486Z,5.56
2023-04-03T12:09:47.439Z,5.87
2023-04-03T12:10:47.445Z,5.90
2023-04-03T12:11:47.398Z,5.94
2023-04-03T12:12:47.392Z,6.09
2023-04-03T12:13:47.369Z,6.35
2023-04-03T12:14:47.337Z,6.72
2023-04-03T12:15:47.355Z,6.26
2023-04-03T12:16:47.337Z,5.56
2023-04-03T12:17:47.318Z,4.99
2023-04-03T12:18:47.287Z,4.90
2023-04-03T12:19:47.261Z,5.04
2023-04-03T12:20:47.291Z,5.11
2023-04-03T12:21:47.355Z,5.43
2023-04-03T12:22:47.207Z,5.51
2023-04-03T12:23:47.222Z,5.44
2023-04-03T12:24:47.173Z,5.30
2023-04-03T12:25:47.190Z,4.94
2023-04-03T12:26:49.096Z,5.10
2023-04-03T12:27:48.116Z,5.23
2023-04-03T12:28:47.101Z,5.61
2023-04-03T12:29:47.098Z,5.56
2023-04-03T12:30:47.099Z,5.48
2023-04-03T12:31:47.081Z,5.10
2023-04-03T12:32:47.042Z,4.97
2023-04-03T12:33:47.024Z,4.93
2023-04-03T12:34:47.000Z,4.96
2023-04-03T12:35:47.055Z,4.97
2023-04-03T12:36:46.986Z,5.08
2023-04-03T12:37:47.020Z,5.48
2023-04-03T12:38:46.937Z,5.39
2023-04-03T12:39:46.910Z,5.72
2023-04-03T12:40:46.886Z,5.99
2023-04-03T12:41:46.912Z,5.87
2023-04-03T12:42:46.851Z,5.94
2023-04-03T12:43:46.839Z,5.80
2023-04-03T12:44:46.814Z,5.80
2023-04-03T12:45:46.853Z,5.71
2023-04-03T12:46:47.843Z,5.90
2023-04-03T12:47:46.791Z,5.99
2023-04-03T12:48:46.744Z,5.61
2023-04-03T12:49:46.738Z,5.71
2023-04-03T12:50:46.712Z,5.89
2023-04-03T12:51:46.724Z,6.04
2023-04-03T12:52:46.673Z,5.99
2023-04-03T12:53:46.747Z,5.94
2023-04-03T12:54:46.644Z,5.97
2023-04-03T12:55:46.626Z,5.80
2023-04-03T12:56:46.643Z,5.51
2023-04-03T12:57:46.593Z,5.12
2023-04-03T12:58:46.569Z,5.18
2023-04-03T12:59:46.557Z,5.50
2023-04-03T13:00:46.541Z,5.66
2023-04-03T13:01:46.601Z,5.51
2023-04-03T13:02:46.655Z,5.44
2023-04-03T13:03:46.610Z,5.62
2023-04-03T13:04:46.463Z,5.68
2023-04-03T13:05:46.445Z,5.68
2023-04-03T13:06:46.456Z,5.68
2023-04-03T13:07:46.416Z,5.80
2023-04-03T13:08:46.397Z,5.84
2023-04-03T13:09:46.445Z,6.01
2023-04-03T13:10:46.360Z,5.93